Time;durP1;ratioP1;P1;durP2;ratioP2;P2;SDS_P1;SDS_P2;PMS_P1;PMS_P2;Temp;Humidity;BMP_temperature;BMP_pressure;BME280_temperature;BME280_humidity;BME280_pressure;Samples;Min_cycle;Max_cycle;Signal;HPM_P1;HPM_P2
2022/05/15 00:01:28;;;;;;;23.02;6.18;;;10.40;99.90;;;;;;4953192;28;20034;-68
2022/05/15 00:03:55;;;;;;;26.52;6.47;;;10.40;99.90;;;;;;4931462;28;215386;-68
2022/05/15 00:06:22;;;;;;;25.80;6.43;;;10.30;99.90;;;;;;4941145;28;168433;-69
2022/05/15 00:08:48;;;;;;;28.95;6.82;;;10.30;99.90;;;;;;4942968;28;210377;-68
2022/05/15 00:11:18;;;;;;;31.80;7.05;;;10.20;99.90;;;;;;4972393;28;80225;-68
2022/05/15 00:13:46;;;;;;;27.73;6.70;;;10.20;99.90;;;;;;4930036;28;205940;-68
2022/05/15 00:16:12;;;;;;;25.70;6.50;;;10.20;99.90;;;;;;4946050;28;41888;-68
2022/05/15 00:18:39;;;;;;;24.73;6.50;;;10.10;99.90;;;;;;4924507;28;213286;-68
2022/05/15 00:21:07;;;;;;;24.08;6.18;;;10.10;99.90;;;;;;4959439;28;135960;-68
2022/05/15 00:23:33;;;;;;;26.55;7.03;;;10.10;99.90;;;;;;4930230;28;219184;-69
2022/05/15 00:25:59;;;;;;;28.00;6.65;;;10.00;99.90;;;;;;4971725;28;110522;-68
2022/05/15 00:28:26;;;;;;;28.88;7.00;;;10.00;99.90;;;;;;4932611;28;213735;-67
2022/05/15 00:30:52;;;;;;;27.30;6.97;;;10.00;99.90;;;;;;4970581;28;186670;-67
2022/05/15 00:33:19;;;;;;;29.60;6.93;;;9.90;99.90;;;;;;4971705;28;210488;-65
2022/05/15 00:35:45;;;;;;;23.73;6.97;;;9.90;99.90;;;;;;4952455;28;108772;-68
2022/05/15 00:38:12;;;;;;;31.98;7.35;;;9.80;99.90;;;;;;4976369;28;20070;-68
2022/05/15 00:40:41;;;;;;;24.20;6.65;;;9.80;99.90;;;;;;4893233;28;205484;-68
2022/05/15 00:43:12;;;;;;;26.50;6.47;;;9.80;99.90;;;;;;4975421;28;20053;-68
2022/05/15 00:45:38;;;;;;;34.55;7.68;;;9.70;99.90;;;;;;4930378;28;205754;-68
2022/05/15 00:48:05;;;;;;;30.38;7.40;;;9.70;99.90;;;;;;4971593;28;20065;-68
2022/05/15 00:50:34;;;;;;;28.65;6.95;;;9.70;99.90;;;;;;4909718;28;233316;-67
2022/05/15 00:53:07;;;;;;;27.20;7.15;;;9.60;99.90;;;;;;4977228;28;20069;-68
2022/05/15 00:55:40;;;;;;;27.20;6.90;;;9.60;99.90;;;;;;4907439;28;238863;-68
2022/05/15 00:58:23;;;;;;;26.25;6.78;;;9.60;99.90;;;;;;4974040;28;20058;-68
2022/05/15 01:00:49;;;;;;;25.55;7.63;;;9.60;99.90;;;;;;4914664;28;206687;-67
2022/05/15 01:03:18;;;;;;;26.73;7.50;;;9.60;99.90;;;;;;4977333;28;20057;-68
2022/05/15 01:05:50;;;;;;;28.23;7.50;;;9.50;99.90;;;;;;4880831;28;212630;-68
2022/05/15 01:08:17;;;;;;;25.92;7.38;;;9.50;99.90;;;;;;4977382;28;20065;-68
2022/05/15 01:10:50;;;;;;;27.73;7.63;;;9.50;99.90;;;;;;4911852;28;234969;-67
2022/05/15 01:13:17;;;;;;;25.42;6.88;;;9.50;99.90;;;;;;4975688;28;20066;-68
2022/05/15 01:15:46;;;;;;;28.92;7.38;;;9.50;99.90;;;;;;4912592;28;251967;-69
2022/05/15 01:18:12;;;;;;;24.33;7.03;;;9.40;99.90;;;;;;4975364;28;20063;-68
2022/05/15 01:20:40;;;;;;;25.63;7.30;;;9.40;99.90;;;;;;4900959;28;206102;-69
2022/05/15 01:23:06;;;;;;;29.30;7.43;;;9.40;99.90;;;;;;4975809;28;20047;-68
2022/05/15 01:25:36;;;;;;;26.05;7.07;;;9.30;99.90;;;;;;4930272;28;215109;-68
2022/05/15 01:28:06;;;;;;;27.95;6.78;;;9.30;99.90;;;;;;4975006;28;20058;-68
2022/05/15 01:30:34;;;;;;;30.13;7.75;;;9.20;99.90;;;;;;4933862;28;216537;-68
2022/05/15 01:33:01;;;;;;;30.85;7.65;;;9.20;99.90;;;;;;4975710;28;20428;-68
2022/05/15 01:35:27;;;;;;;29.50;6.50;;;9.20;99.90;;;;;;4910415;28;227314;-68
2022/05/15 01:37:53;;;;;;;24.77;6.63;;;9.20;99.90;;;;;;4985895;22;20081;-81
2022/05/15 01:40:20;;;;;;;26.98;7.00;;;9.20;99.90;;;;;;4930499;28;204612;-83
2022/05/15 01:42:46;;;;;;;27.50;7.28;;;9.10;99.90;;;;;;4998977;28;20069;-82
2022/05/15 01:45:14;;;;;;;33.10;8.13;;;9.10;99.90;;;;;;4940469;28;260326;-82
2022/05/15 01:47:42;;;;;;;28.60;7.68;;;9.10;99.90;;;;;;4977082;28;20558;-82
2022/05/15 01:50:11;;;;;;;27.40;7.57;;;9.10;99.90;;;;;;4920630;28;205469;-81
2022/05/15 01:52:37;;;;;;;25.77;7.55;;;9.10;99.90;;;;;;5001313;28;20055;-82
2022/05/15 01:55:04;;;;;;;29.13;7.55;;;9.00;99.90;;;;;;4957184;28;204375;-83
2022/05/15 01:57:30;;;;;;;28.13;7.35;;;9.00;99.90;;;;;;5010360;28;20054;-82
2022/05/15 01:59:56;;;;;;;31.80;8.07;;;9.00;99.90;;;;;;4956258;28;240066;-83
2022/05/15 02:02:22;;;;;;;26.92;7.20;;;9.00;99.90;;;;;;5020449;28;20045;-82
2022/05/15 02:04:49;;;;;;;28.77;7.88;;;9.00;99.90;;;;;;4924453;28;280695;-82
2022/05/15 02:07:15;;;;;;;22.23;7.13;;;8.90;99.90;;;;;;4990627;23;20059;-69
2022/05/15 02:09:41;;;;;;;33.08;8.93;;;8.90;99.90;;;;;;4940220;28;238046;-70
2022/05/15 02:12:08;;;;;;;29.40;7.60;;;8.80;99.90;;;;;;4997893;28;20049;-70
2022/05/15 02:14:34;;;;;;;27.55;7.43;;;8.80;99.90;;;;;;4935316;28;214798;-71
2022/05/15 02:17:00;;;;;;;30.60;7.72;;;8.80;99.90;;;;;;4985063;28;20041;-69
2022/05/15 02:19:26;;;;;;;23.20;7.10;;;8.80;99.90;;;;;;4926531;28;209563;-70
2022/05/15 02:21:53;;;;;;;22.63;6.30;;;8.70;99.90;;;;;;4984436;28;20045;-70
2022/05/15 02:24:19;;;;;;;34.55;8.20;;;8.70;99.90;;;;;;4932693;28;210598;-71
2022/05/15 02:26:45;;;;;;;34.03;8.73;;;8.70;99.90;;;;;;4976409;28;20420;-70
2022/05/15 02:29:11;;;;;;;27.67;8.02;;;8.70;99.90;;;;;;4938084;28;218973;-71
2022/05/15 02:31:38;;;;;;;27.70;7.60;;;8.70;99.90;;;;;;4977601;28;20053;-71
2022/05/15 02:34:04;;;;;;;24.95;7.47;;;8.70;99.90;;;;;;4933219;28;205692;-70
2022/05/15 02:36:30;;;;;;;24.77;7.10;;;8.60;99.90;;;;;;4992945;28;20050;-70
2022/05/15 02:38:57;;;;;;;24.55;7.47;;;8.60;99.90;;;;;;4952895;28;210793;-67
2022/05/15 02:41:23;;;;;;;24.90;6.82;;;8.60;99.90;;;;;;5000023;28;20045;-71
2022/05/15 02:43:50;;;;;;;24.23;7.47;;;8.50;99.90;;;;;;4948195;28;210954;-71
2022/05/15 02:46:16;;;;;;;29.45;8.43;;;8.50;99.90;;;;;;4970951;28;164703;-70
2022/05/15 02:51:27;;;;;;;25.63;7.63;;;8.50;99.90;;;;;;4964882;28;20061;-72
2022/05/15 02:53:53;;;;;;;30.05;8.48;;;8.50;99.90;;;;;;4944760;28;214965;-70
2022/05/15 02:56:29;;;;;;;27.20;8.65;;;8.50;99.90;;;;;;4960562;28;20405;-70
2022/05/15 02:58:56;;;;;;;25.30;7.93;;;8.40;99.90;;;;;;4953167;28;154763;-72
2022/05/15 03:01:22;;;;;;;29.85;7.95;;;8.40;99.90;;;;;;4980251;28;20089;-71
2022/05/15 03:03:49;;;;;;;25.48;7.82;;;8.40;99.90;;;;;;4938581;28;207190;-70
2022/05/15 03:06:16;;;;;;;24.30;7.93;;;8.40;99.90;;;;;;4949640;28;141640;-70
2022/05/15 03:08:45;;;;;;;27.10;7.87;;;8.30;99.90;;;;;;4944951;28;212141;-70
2022/05/15 03:11:11;;;;;;;30.23;8.10;;;8.30;99.90;;;;;;4976950;28;124979;-71
2022/05/15 03:13:38;;;;;;;25.58;7.15;;;8.30;99.90;;;;;;4940634;28;219403;-70
2022/05/15 03:16:06;;;;;;;20.13;7.13;;;8.30;99.90;;;;;;4959502;28;104078;-69
2022/05/15 03:18:32;;;;;;;25.53;7.07;;;8.20;99.90;;;;;;4944212;28;213878;-71
2022/05/15 03:20:59;;;;;;;24.02;7.35;;;8.30;99.90;;;;;;4982895;28;27214;-71
2022/05/15 03:23:25;;;;;;;22.63;7.30;;;8.20;99.90;;;;;;4953731;28;211540;-70
2022/05/15 03:25:52;;;;;;;24.77;7.10;;;8.20;99.90;;;;;;4973183;28;100182;-71
2022/05/15 03:28:18;;;;;;;21.80;7.06;;;8.20;99.90;;;;;;4992581;28;222134;-71
2022/05/15 03:30:44;;;;;;;25.77;7.13;;;8.20;99.90;;;;;;4931149;28;174600;-71
2022/05/15 03:33:12;;;;;;;21.45;7.43;;;8.20;99.90;;;;;;4998172;28;20145;-71
2022/05/15 03:35:39;;;;;;;23.38;7.53;;;8.10;99.90;;;;;;4947852;28;204230;-70
2022/05/15 03:38:07;;;;;;;21.88;7.25;;;8.10;99.90;;;;;;5002904;28;20053;-71
2022/05/15 03:40:34;;;;;;;26.25;8.40;;;8.10;99.90;;;;;;4932592;28;206178;-70
2022/05/15 03:43:00;;;;;;;25.85;7.47;;;8.10;99.90;;;;;;4994390;28;20440;-69
2022/05/15 03:45:27;;;;;;;23.50;7.63;;;8.10;99.90;;;;;;4943865;28;217806;-70
2022/05/15 03:47:54;;;;;;;27.08;7.95;;;8.10;99.90;;;;;;4991443;28;20064;-70
2022/05/15 03:50:24;;;;;;;26.27;8.15;;;8.00;99.90;;;;;;4951850;28;210132;-70
2022/05/15 03:52:50;;;;;;;28.10;8.27;;;8.10;99.90;;;;;;4996865;28;20153;-71
2022/05/15 03:55:17;;;;;;;22.75;7.90;;;8.10;99.90;;;;;;4920651;28;216105;-71
2022/05/15 03:57:43;;;;;;;23.33;8.07;;;8.10;99.90;;;;;;4999187;28;20534;-71
2022/05/15 04:00:14;;;;;;;23.23;7.97;;;8.10;99.90;;;;;;4938070;28;254051;-72
2022/05/15 04:02:40;;;;;;;29.58;9.02;;;8.10;99.90;;;;;;4996565;28;20384;-70
2022/05/15 04:05:08;;;;;;;29.83;8.07;;;8.10;99.90;;;;;;4917784;28;209674;-70
2022/05/15 04:07:45;;;;;;;21.10;7.65;;;8.10;99.90;;;;;;4998334;28;20057;-69
2022/05/15 04:10:12;;;;;;;26.27;8.00;;;8.20;99.90;;;;;;4936978;28;207747;-70
2022/05/15 04:12:40;;;;;;;19.85;7.07;;;8.20;99.90;;;;;;4998606;28;20073;-70
2022/05/15 04:15:06;;;;;;;27.55;8.23;;;8.20;99.90;;;;;;4951951;28;213094;-71
2022/05/15 04:17:32;;;;;;;21.23;6.72;;;8.20;99.90;;;;;;4997923;28;20079;-70
2022/05/15 04:20:03;;;;;;;23.10;8.15;;;8.30;99.90;;;;;;4937909;28;209710;-70
2022/05/15 04:22:29;;;;;;;23.58;7.78;;;8.30;99.90;;;;;;4997261;28;20058;-70
2022/05/15 04:24:55;;;;;;;23.42;8.07;;;8.40;99.90;;;;;;4931982;28;215239;-69
2022/05/15 04:27:24;;;;;;;23.77;7.22;;;8.40;99.90;;;;;;4998235;28;20049;-71
2022/05/15 04:29:51;;;;;;;30.70;8.68;;;8.50;99.90;;;;;;4922109;28;223785;-70
2022/05/15 04:32:17;;;;;;;23.33;7.93;;;8.50;99.90;;;;;;4986993;28;20053;-70
2022/05/15 04:34:43;;;;;;;28.85;8.02;;;8.50;99.90;;;;;;4931285;28;206113;-70
2022/05/15 04:37:10;;;;;;;28.45;8.52;;;8.60;99.90;;;;;;4993983;28;20069;-70
2022/05/15 04:39:36;;;;;;;27.02;7.95;;;8.60;99.90;;;;;;4946710;28;228108;-71
2022/05/15 04:42:03;;;;;;;26.05;7.93;;;8.70;99.90;;;;;;4998912;28;20049;-71
2022/05/15 04:44:29;;;;;;;29.65;9.02;;;8.80;99.90;;;;;;4940999;28;211352;-71
2022/05/15 04:46:55;;;;;;;32.78;8.65;;;8.80;99.90;;;;;;4993161;28;20061;-71
2022/05/15 04:49:21;;;;;;;27.40;8.73;;;8.90;99.90;;;;;;4927853;28;209550;-71
2022/05/15 04:51:48;;;;;;;36.53;9.48;;;9.00;99.90;;;;;;4995477;28;20085;-70
2022/05/15 04:54:14;;;;;;;33.38;9.40;;;9.10;99.90;;;;;;4929385;28;238591;-71
2022/05/15 04:56:40;;;;;;;32.78;9.95;;;9.20;99.90;;;;;;4982619;28;20054;-71
2022/05/15 04:59:07;;;;;;;34.90;9.40;;;9.20;99.90;;;;;;4923571;28;209831;-70
2022/05/15 05:01:33;;;;;;;30.63;9.80;;;9.30;99.90;;;;;;4993494;28;20391;-71
2022/05/15 05:03:59;;;;;;;29.58;8.95;;;9.40;99.90;;;;;;4936392;28;214830;-70
2022/05/15 05:06:27;;;;;;;32.60;9.13;;;9.50;99.90;;;;;;4975124;28;116272;-71
2022/05/15 05:08:54;;;;;;;26.13;7.97;;;9.70;99.90;;;;;;4954208;28;215288;-71
2022/05/15 05:11:20;;;;;;;34.72;8.90;;;9.80;99.90;;;;;;4989863;28;99265;-70
2022/05/15 05:13:46;;;;;;;35.17;9.05;;;9.80;99.90;;;;;;4944454;28;213569;-73
2022/05/15 05:16:13;;;;;;;33.72;8.90;;;9.90;99.90;;;;;;4973145;28;275781;-70
2022/05/15 05:18:40;;;;;;;31.33;8.25;;;10.00;99.90;;;;;;4949550;28;213851;-72
2022/05/15 05:21:06;;;;;;;31.83;8.40;;;10.10;99.90;;;;;;4959109;28;213136;-71
2022/05/15 05:23:33;;;;;;;35.72;8.38;;;10.30;99.90;;;;;;4949250;28;209722;-70
2022/05/15 05:26:00;;;;;;;26.70;8.23;;;10.30;99.90;;;;;;4973404;28;160510;-71
2022/05/15 05:28:26;;;;;;;34.37;8.47;;;10.40;99.90;;;;;;4951556;28;213962;-71
2022/05/15 05:30:53;;;;;;;34.17;9.18;;;10.50;99.90;;;;;;4974761;28;243885;-72
2022/05/15 05:33:19;;;;;;;28.00;7.70;;;10.60;99.90;;;;;;4979666;28;205315;-69
2022/05/15 05:35:45;;;;;;;36.33;9.40;;;10.80;99.90;;;;;;4927595;28;206019;-70
2022/05/15 05:38:12;;;;;;;32.08;8.70;;;10.90;99.90;;;;;;4995901;28;20065;-70
2022/05/15 05:40:38;;;;;;;33.78;8.27;;;11.00;99.90;;;;;;4937176;28;203522;-70
2022/05/15 05:43:04;;;;;;;33.28;8.68;;;11.10;99.90;;;;;;4980861;28;20051;-71
2022/05/15 05:45:31;;;;;;;27.60;8.23;;;11.20;99.90;;;;;;4921535;28;209033;-70
2022/05/15 05:47:57;;;;;;;31.55;8.00;;;11.30;99.90;;;;;;4989386;28;20047;-71
2022/05/15 05:50:26;;;;;;;35.05;8.38;;;11.50;99.90;;;;;;4936641;28;207051;-71
2022/05/15 05:52:54;;;;;;;26.92;7.20;;;11.60;99.90;;;;;;4996810;28;20069;-70
2022/05/15 05:55:21;;;;;;;29.98;7.82;;;11.80;99.90;;;;;;4928296;28;212042;-70
2022/05/15 05:57:48;;;;;;;26.98;7.35;;;12.20;99.90;;;;;;4999118;28;20166;-71
2022/05/15 06:00:24;;;;;;;30.38;7.13;;;12.60;99.90;;;;;;4949199;28;212363;-71
2022/05/15 06:02:51;;;;;;;29.25;7.38;;;12.80;99.90;;;;;;5001581;28;20069;-71
2022/05/15 06:05:17;;;;;;;25.35;6.68;;;13.20;99.90;;;;;;4909743;28;207126;-71
2022/05/15 06:07:43;;;;;;;26.40;6.57;;;13.40;99.90;;;;;;4985320;28;20050;-69
2022/05/15 06:10:12;;;;;;;25.02;6.03;;;13.70;99.90;;;;;;4923362;28;212302;-71
2022/05/15 06:12:42;;;;;;;22.60;6.22;;;14.00;99.90;;;;;;4992371;28;20069;-69
2022/05/15 06:15:10;;;;;;;25.92;6.75;;;14.20;99.90;;;;;;4947811;28;51463;-71
2022/05/15 06:17:36;;;;;;;25.00;7.03;;;14.40;99.90;;;;;;4994652;28;20070;-69
2022/05/15 06:20:09;;;;;;;23.98;6.35;;;14.70;99.90;;;;;;4933826;28;132490;-70
2022/05/15 06:22:35;;;;;;;27.35;6.35;;;14.90;99.90;;;;;;4993396;28;20073;-69
2022/05/15 06:25:02;;;;;;;23.40;6.45;;;15.20;99.90;;;;;;4948699;28;209798;-69
2022/05/15 06:27:28;;;;;;;24.00;6.10;;;15.40;99.90;;;;;;4994017;28;20073;-69
2022/05/15 06:29:57;;;;;;;24.52;6.00;;;15.50;99.90;;;;;;4932949;28;216367;-69
2022/05/15 06:32:25;;;;;;;19.88;5.60;;;15.70;99.90;;;;;;4992459;28;20054;-71
2022/05/15 06:34:52;;;;;;;24.92;6.07;;;15.90;99.90;;;;;;4932487;28;241407;-68
2022/05/15 06:37:18;;;;;;;22.60;5.72;;;16.10;99.90;;;;;;4996093;28;20052;-70
2022/05/15 06:39:44;;;;;;;21.85;5.53;;;16.30;99.90;;;;;;4918249;28;213732;-69
2022/05/15 06:42:11;;;;;;;24.52;6.35;;;16.50;99.90;;;;;;4970635;28;20117;-70
2022/05/15 06:44:37;;;;;;;21.73;5.70;;;16.70;99.90;;;;;;4943324;28;250381;-69
2022/05/15 06:47:03;;;;;;;24.05;5.82;;;16.90;99.90;;;;;;5002854;28;20054;-70
2022/05/15 06:49:29;;;;;;;21.35;5.88;;;17.10;99.90;;;;;;4934458;28;210108;-70
2022/05/15 06:51:55;;;;;;;21.83;5.50;;;17.30;99.90;;;;;;4996440;28;20038;-70
2022/05/15 06:54:22;;;;;;;24.00;5.53;;;17.40;99.90;;;;;;4931649;28;253124;-69
2022/05/15 06:59:34;;;;;;;23.40;6.22;;;17.80;99.90;;;;;;4925798;28;235056;-70
2022/05/15 07:02:01;;;;;;;22.15;5.30;;;18.00;99.90;;;;;;4978929;28;20553;-69
2022/05/15 07:04:27;;;;;;;21.50;4.90;;;18.30;99.90;;;;;;4908267;28;244667;-70
2022/05/15 07:06:53;;;;;;;19.88;5.07;;;18.50;99.90;;;;;;4978044;28;20066;-71
2022/05/15 07:09:19;;;;;;;19.90;4.28;;;18.60;99.90;;;;;;4940929;28;216183;-70
2022/05/15 07:11:46;;;;;;;22.00;5.15;;;18.80;99.90;;;;;;4997809;28;20141;-68
2022/05/15 07:14:12;;;;;;;21.05;4.97;;;19.00;99.90;;;;;;4947325;28;209571;-68
2022/05/15 07:16:39;;;;;;;18.30;4.82;;;19.30;99.90;;;;;;5000176;28;20050;-70
2022/05/15 07:19:05;;;;;;;16.42;4.60;;;19.40;99.90;;;;;;4928868;28;206637;-70
2022/05/15 07:21:31;;;;;;;19.98;5.10;;;19.50;99.90;;;;;;4989874;28;20066;-69
2022/05/15 07:23:58;;;;;;;19.00;4.90;;;19.60;99.90;;;;;;4931484;28;209855;-71
2022/05/15 07:26:24;;;;;;;20.13;5.10;;;19.80;99.90;;;;;;4992222;28;20435;-70
2022/05/15 07:28:51;;;;;;;20.38;5.18;;;20.00;99.90;;;;;;4946348;28;210276;-68
2022/05/15 07:31:21;;;;;;;19.23;5.20;;;20.10;99.90;;;;;;4969067;28;196978;-68
2022/05/15 07:33:49;;;;;;;19.13;5.10;;;20.30;99.70;;;;;;4945684;28;213665;-69
2022/05/15 07:36:16;;;;;;;19.05;5.70;;;20.40;99.70;;;;;;4972672;28;207802;-69
2022/05/15 07:38:43;;;;;;;22.25;5.18;;;20.60;98.90;;;;;;4933820;28;208607;-68
2022/05/15 07:41:09;;;;;;;18.77;5.28;;;20.80;98.80;;;;;;4976881;28;147683;-69
2022/05/15 07:43:36;;;;;;;21.87;5.10;;;21.00;98.80;;;;;;4948579;28;221718;-69
2022/05/15 07:46:03;;;;;;;16.63;5.05;;;21.20;97.80;;;;;;4973014;28;154715;-68
2022/05/15 07:48:29;;;;;;;17.87;4.73;;;21.40;97.50;;;;;;4947955;28;223239;-69
2022/05/15 07:50:55;;;;;;;18.58;4.80;;;21.60;97.60;;;;;;4994117;28;20121;-68
2022/05/15 07:53:22;;;;;;;18.05;4.82;;;21.80;96.10;;;;;;4964517;28;209569;-69
2022/05/15 07:55:48;;;;;;;19.05;4.80;;;21.80;96.10;;;;;;4949411;28;203897;-69
2022/05/15 07:58:14;;;;;;;18.02;4.90;;;22.10;95.50;;;;;;4997164;28;20372;-68
2022/05/15 08:00:40;;;;;;;20.17;5.03;;;22.20;95.10;;;;;;4943428;28;188580;-69
2022/05/15 08:03:10;;;;;;;18.63;4.63;;;22.30;94.30;;;;;;4996208;28;20073;-70
2022/05/15 08:08:23;;;;;;;19.77;5.07;;;22.50;91.80;;;;;;4963630;28;214068;-69
2022/05/15 08:10:50;;;;;;;19.10;4.95;;;22.70;92.00;;;;;;4959578;28;206813;-69
2022/05/15 08:13:20;;;;;;;16.73;4.38;;;22.90;91.10;;;;;;5008887;28;20038;-69
2022/05/15 08:15:47;;;;;;;;;;;23.10;91.20;;;;;;4930412;28;205594;-70
2022/05/15 08:23:54;;;;;;;17.00;4.65;;;23.60;86.10;;;;;;4958781;28;221940;-69
2022/05/15 08:26:20;;;;;;;18.52;4.95;;;23.80;84.90;;;;;;4977738;28;59488;-69
2022/05/15 08:28:47;;;;;;;16.85;4.43;;;24.00;81.20;;;;;;4954648;28;209237;-69
2022/05/15 08:31:13;;;;;;;19.10;4.28;;;24.20;77.50;;;;;;4997768;28;135208;-70
2022/05/15 08:33:41;;;;;;;17.80;4.80;;;24.40;77.40;;;;;;4949704;28;224275;-69
2022/05/15 08:36:07;;;;;;;17.67;4.22;;;24.60;73.90;;;;;;4986711;28;197282;-69
2022/05/15 08:38:34;;;;;;;17.27;4.45;;;24.80;72.50;;;;;;4951279;28;226080;-70
2022/05/15 08:41:15;;;;;;;20.13;4.80;;;24.90;71.50;;;;;;4969361;28;230461;-70
2022/05/15 08:43:46;;;;;;;16.23;4.10;;;25.10;68.20;;;;;;4946817;28;215647;-70
2022/05/15 08:46:39;;;;;;;19.40;4.53;;;25.20;67.70;;;;;;4963287;28;175154;-69
2022/05/15 08:49:19;;;;;;;20.57;4.80;;;25.30;60.70;;;;;;4938806;28;206452;-69
2022/05/15 08:51:59;;;;;;;16.55;4.32;;;25.20;63.50;;;;;;5003454;28;20054;-68
2022/05/15 08:54:26;;;;;;;15.88;4.47;;;25.50;62.60;;;;;;4930230;28;215196;-71
2022/05/15 08:56:53;;;;;;;17.52;4.30;;;25.70;64.50;;;;;;5002030;28;20049;-68
2022/05/15 08:59:25;;;;;;;17.15;4.25;;;26.10;64.10;;;;;;4932103;28;211993;-71
2022/05/15 09:01:54;;;;;;;17.75;4.85;;;26.30;62.40;;;;;;5008336;28;20497;-69
2022/05/15 09:04:21;;;;;;;17.95;4.40;;;26.40;60.90;;;;;;4921806;28;227737;-69
2022/05/15 09:07:06;;;;;;;17.88;4.78;;;26.60;59.90;;;;;;5001652;28;20065;-69
2022/05/15 09:09:50;;;;;;;20.80;4.53;;;26.90;57.00;;;;;;4929761;28;220736;-69
2022/05/15 09:12:20;;;;;;;17.90;4.53;;;26.90;57.10;;;;;;4998004;28;20189;-69
2022/05/15 09:14:59;;;;;;;19.98;4.65;;;27.00;56.30;;;;;;4957510;28;159532;-69
2022/05/15 09:17:34;;;;;;;18.58;4.20;;;27.10;55.60;;;;;;4997079;28;20069;-70
2022/05/15 09:20:09;;;;;;;15.27;4.15;;;27.20;54.50;;;;;;4909332;28;231447;-70
2022/05/15 09:22:41;;;;;;;15.88;4.25;;;27.30;55.70;;;;;;5003882;28;20085;-70
2022/05/15 09:25:34;;;;;;;14.35;4.20;;;27.80;54.50;;;;;;4941971;28;219941;-70
2022/05/15 09:28:05;;;;;;;18.10;4.63;;;27.90;52.00;;;;;;4994807;28;20053;-70
2022/05/15 09:30:50;;;;;;;16.00;4.00;;;28.20;53.10;;;;;;4942306;28;215747;-71
2022/05/15 09:33:34;;;;;;;16.63;4.50;;;28.60;48.90;;;;;;5002011;28;20042;-73
2022/05/15 09:36:18;;;;;;;15.32;4.18;;;28.60;49.70;;;;;;4931705;28;206180;-71
2022/05/15 09:38:47;;;;;;;13.57;3.33;;;28.50;49.60;;;;;;4951566;28;184412;-69
2022/05/15 09:44:02;;;;;;;14.07;4.00;;;28.70;47.90;;;;;;4943335;28;208964;-70
2022/05/15 09:46:30;;;;;;;18.00;4.20;;;29.10;48.90;;;;;;4985165;28;20432;-70
2022/05/15 09:49:00;;;;;;;15.23;3.88;;;29.40;47.10;;;;;;4949513;28;210685;-72
2022/05/15 09:51:26;;;;;;;;;;;29.70;46.90;;;;;;4974794;28;20082;-70
2022/05/15 09:53:55;;;;;;;13.43;3.72;;;29.50;43.50;;;;;;4950491;28;213446;-71
2022/05/15 09:56:21;;;;;;;16.88;4.18;;;29.20;46.40;;;;;;4988289;28;130194;-70
2022/05/15 09:58:50;;;;;;;18.08;4.60;;;29.40;46.80;;;;;;4947905;28;211123;-69
2022/05/15 10:01:23;;;;;;;17.55;4.07;;;29.80;46.20;;;;;;4980987;28;135910;-69
2022/05/15 10:03:55;;;;;;;14.73;4.07;;;30.10;45.30;;;;;;4954380;28;210039;-69
2022/05/15 10:06:25;;;;;;;18.33;4.30;;;30.30;43.60;;;;;;4978778;28;145079;-70
2022/05/15 10:09:10;;;;;;;15.35;3.95;;;30.20;43.30;;;;;;4953760;28;216312;-71
2022/05/15 10:11:42;;;;;;;17.60;4.10;;;30.30;42.80;;;;;;4965576;28;20118;-69
2022/05/15 10:14:35;;;;;;;19.77;4.73;;;30.40;43.10;;;;;;4938395;28;209291;-74
2022/05/15 10:17:02;;;;;;;18.83;4.50;;;30.30;42.10;;;;;;4995377;28;20046;-69
2022/05/15 10:19:47;;;;;;;18.25;4.53;;;30.00;43.20;;;;;;4923289;28;209466;-71
2022/05/15 10:22:25;;;;;;;16.45;4.55;;;30.20;42.00;;;;;;4994298;28;20054;-69
2022/05/15 10:24:53;;;;;;;16.35;4.20;;;30.50;42.90;;;;;;4941756;28;247504;-73
2022/05/15 10:27:27;;;;;;;17.27;4.43;;;30.70;42.00;;;;;;5004349;28;20064;-71
2022/05/15 10:30:03;;;;;;;16.17;3.90;;;31.10;41.70;;;;;;4931681;28;209411;-69
2022/05/15 10:32:36;;;;;;;15.68;3.97;;;31.30;41.50;;;;;;4993550;28;20054;-71
2022/05/15 10:35:02;;;;;;;16.23;4.32;;;31.30;41.20;;;;;;4953010;28;209159;-70
2022/05/15 10:37:59;;;;;;;19.02;4.55;;;31.20;40.80;;;;;;5002393;28;20085;-73
2022/05/15 10:40:49;;;;;;;17.58;4.43;;;31.10;40.60;;;;;;4953455;28;208400;-69
2022/05/15 10:43:24;;;;;;;17.88;4.28;;;31.00;40.10;;;;;;4994520;28;20065;-70
2022/05/15 10:46:01;;;;;;;14.45;4.18;;;30.90;41.00;;;;;;4937076;28;241781;-70
2022/05/15 10:48:46;;;;;;;15.88;3.97;;;31.20;41.20;;;;;;4942233;28;210273;-69
2022/05/15 10:51:22;;;;;;;16.23;4.30;;;31.40;39.20;;;;;;4989791;28;146922;-70
2022/05/15 10:57:39;;;;;;;14.32;3.97;;;31.30;37.50;;;;;;4933850;28;20769;-69
2022/05/15 11:00:44;;;;;;;16.35;3.72;;;31.20;41.00;;;;;;4903198;28;208215;-70
2022/05/15 11:03:22;;;;;;;15.55;3.80;;;31.90;39.80;;;;;;4958260;28;20202;-70
2022/05/15 11:06:27;;;;;;;15.23;3.92;;;32.20;38.70;;;;;;4862500;28;205117;-71
2022/05/15 11:09:06;;;;;;;16.38;4.22;;;32.60;37.70;;;;;;4898076;28;207952;-71
2022/05/15 11:12:09;;;;;;;17.15;4.28;;;32.10;38.00;;;;;;4934731;28;20043;-70
2022/05/15 11:14:50;;;;;;;16.33;4.18;;;32.00;37.00;;;;;;4897708;28;207436;-69
2022/05/15 11:17:40;;;;;;;15.35;3.97;;;31.50;38.90;;;;;;4933150;28;20313;-69
2022/05/15 11:20:15;;;;;;;;;;;31.90;39.20;;;;;;4873304;28;219203;-69
2022/05/15 11:22:48;;;;;;;13.77;4.15;;;32.50;39.30;;;;;;4935538;28;19933;-70
2022/05/15 11:25:27;;;;;;;16.10;4.50;;;32.60;38.10;;;;;;4887513;28;206599;-69
2022/05/15 11:28:19;;;;;;;15.98;3.70;;;32.60;37.90;;;;;;4954741;28;20051;-69
2022/05/15 11:30:48;;;;;;;14.25;3.70;;;32.80;37.60;;;;;;4892002;28;206731;-71
2022/05/15 11:33:17;;;;;;;17.40;4.03;;;33.00;38.30;;;;;;4970581;28;20054;-70
2022/05/15 11:36:06;;;;;;;14.23;3.50;;;33.30;37.10;;;;;;4928069;28;252768;-70
2022/05/15 11:38:48;;;;;;;15.07;4.10;;;33.60;36.80;;;;;;4907673;28;207664;-70
2022/05/15 11:41:35;;;;;;;15.18;4.30;;;33.60;36.10;;;;;;4946875;28;153855;-70
2022/05/15 11:44:09;;;;;;;17.30;4.00;;;33.50;36.90;;;;;;4915848;28;202929;-70
2022/05/15 11:46:47;;;;;;;15.40;4.03;;;33.20;36.60;;;;;;4959759;28;20467;-70
2022/05/15 11:49:36;;;;;;;13.77;3.45;;;32.50;35.30;;;;;;4934997;28;70711;-70
2022/05/15 11:52:08;;;;;;;;;;;32.30;37.00;;;;;;4974378;28;20428;-71
2022/05/15 11:54:39;;;;;;;15.60;4.10;;;32.20;36.60;;;;;;4915456;28;211449;-70
2022/05/15 11:57:10;;;;;;;16.50;4.00;;;32.10;36.60;;;;;;4976612;28;20078;-70
2022/05/15 11:59:47;;;;;;;15.38;3.72;;;32.20;37.00;;;;;;4922529;28;206664;-70
2022/05/15 12:02:30;;;;;;;15.75;4.03;;;32.30;36.80;;;;;;4977090;28;20058;-70
2022/05/15 12:05:09;;;;;;;14.68;3.92;;;32.50;36.10;;;;;;4896944;28;206352;-69
2022/05/15 12:07:53;;;;;;;16.58;3.85;;;32.60;36.90;;;;;;4965225;28;20051;-69
2022/05/15 12:10:32;;;;;;;14.93;3.90;;;32.70;37.20;;;;;;4914517;28;219897;-72
2022/05/15 12:13:08;;;;;;;15.52;3.92;;;32.60;36.20;;;;;;4971275;28;20046;-70
2022/05/15 12:16:00;;;;;;;14.82;3.95;;;32.50;36.50;;;;;;4931339;28;246981;-70
2022/05/15 12:18:32;;;;;;;14.55;4.03;;;32.50;35.70;;;;;;4948724;28;211109;-71
2022/05/15 12:20:59;;;;;;;13.90;3.40;;;32.10;36.00;;;;;;4983404;28;138908;-71
2022/05/15 12:23:37;;;;;;;15.85;3.47;;;32.40;36.90;;;;;;4954635;28;212299;-69
2022/05/15 12:26:30;;;;;;;14.57;3.50;;;32.80;35.40;;;;;;4969214;28;225528;-70
2022/05/15 12:29:19;;;;;;;11.85;3.00;;;32.90;35.50;;;;;;4964096;28;199775;-70
2022/05/15 12:31:46;;;;;;;16.35;3.80;;;33.20;36.80;;;;;;4988113;28;20046;-71
2022/05/15 12:34:32;;;;;;;15.68;3.85;;;33.40;36.00;;;;;;4949306;28;208824;-70
2022/05/15 12:37:09;;;;;;;15.95;3.78;;;33.70;35.30;;;;;;5002039;28;20054;-70
2022/05/15 12:39:40;;;;;;;12.82;3.40;;;33.60;34.90;;;;;;4956429;28;212742;-70
2022/05/15 12:42:29;;;;;;;14.32;3.28;;;33.50;35.60;;;;;;5004576;28;20484;-71
2022/05/15 12:45:19;;;;;;;13.90;3.63;;;33.70;35.90;;;;;;4920418;28;231067;-71
2022/05/15 12:48:08;;;;;;;13.43;3.30;;;34.10;34.30;;;;;;4994348;28;20057;-71
2022/05/15 12:51:02;;;;;;;16.95;4.00;;;33.90;34.60;;;;;;4950877;28;210634;-70
2022/05/15 12:53:31;;;;;;;12.63;3.28;;;33.90;33.90;;;;;;4952533;28;214505;-71
2022/05/15 12:56:08;;;;;;;;;;;33.70;34.60;;;;;;4988453;28;76949;-72
2022/05/15 12:58:35;;;;;;;13.25;3.55;;;33.50;34.30;;;;;;4961812;28;208800;-70
2022/05/15 13:01:01;;;;;;;16.65;4.20;;;33.50;35.70;;;;;;4985309;28;161530;-72
2022/05/15 13:03:27;;;;;;;15.43;3.80;;;33.70;34.20;;;;;;4947333;28;216520;-71
2022/05/15 13:05:56;;;;;;;13.88;3.58;;;33.60;34.60;;;;;;4972029;28;137456;-73
2022/05/15 13:08:23;;;;;;;12.73;3.55;;;33.60;34.10;;;;;;4971024;28;217676;-72
2022/05/15 13:10:57;;;;;;;17.55;3.95;;;33.90;35.60;;;;;;4949745;28;208950;-71
2022/05/15 13:13:29;;;;;;;14.38;4.07;;;34.20;34.70;;;;;;4983694;28;209895;-71